Time;durP1;ratioP1;P1;durP2;ratioP2;P2;SDS_P1;SDS_P2;PMS_P1;PMS_P2;Temp;Humidity;BMP_temperature;BMP_pressure;BME280_temperature;BME280_humidity;BME280_pressure;Samples;Min_cycle;Max_cycle;Signal;HPM_P1;HPM_P2
2023/02/22 00:01:20;;;;;;;16.92;4.90;;;6.40;99.90;;;;;;2607782;46;20041;31
2023/02/22 00:04:01;;;;;;;13.75;5.25;;;6.30;99.90;;;;;;2602681;54;19943;31
2023/02/22 00:06:39;;;;;;;22.83;6.47;;;6.30;99.90;;;;;;2603517;54;20069;31
2023/02/22 00:09:19;;;;;;;11.40;4.70;;;6.30;99.90;;;;;;2602857;54;20022;31
2023/02/22 00:12:08;;;;;;;18.20;5.78;;;6.20;99.90;;;;;;2603387;54;20026;31
2023/02/22 00:15:02;;;;;;;19.55;5.60;;;6.20;99.90;;;;;;2603566;54;20026;31
2023/02/22 00:17:38;;;;;;;17.10;5.35;;;6.10;99.90;;;;;;2603388;54;20033;31
2023/02/22 00:20:18;;;;;;;14.35;4.88;;;6.10;99.90;;;;;;2603575;54;20066;31
2023/02/22 00:22:54;;;;;;;14.57;5.03;;;6.00;99.90;;;;;;2621998;46;20037;31
2023/02/22 00:25:32;;;;;;;11.23;4.78;;;6.00;99.90;;;;;;2603456;54;20061;31
2023/02/22 00:28:10;;;;;;;21.45;5.72;;;5.90;99.90;;;;;;2603739;54;20030;31
2023/02/22 00:31:04;;;;;;;16.50;5.00;;;5.90;99.90;;;;;;2603672;54;20034;31
2023/02/22 00:33:49;;;;;;;18.13;4.53;;;5.90;99.90;;;;;;2603599;54;20049;31
2023/02/22 00:36:25;;;;;;;20.90;5.03;;;5.80;99.90;;;;;;2602834;54;20813;31
2023/02/22 00:39:06;;;;;;;11.90;3.63;;;5.70;99.90;;;;;;2621760;46;20034;31
2023/02/22 00:41:42;;;;;;;15.10;4.45;;;5.70;99.90;;;;;;2603399;54;20036;31
2023/02/22 00:44:20;;;;;;;19.23;4.20;;;5.70;99.90;;;;;;2602552;54;20026;31
2023/02/22 00:47:12;;;;;;;12.30;3.80;;;5.60;99.90;;;;;;2602589;54;20956;31
2023/02/22 00:49:49;;;;;;;19.65;4.90;;;5.60;99.90;;;;;;2603239;54;20779;31
2023/02/22 00:52:26;;;;;;;11.70;3.63;;;5.50;99.90;;;;;;2602745;54;20034;31
2023/02/22 00:55:02;;;;;;;14.50;4.28;;;5.50;99.90;;;;;;2603025;54;20037;31
2023/02/22 00:57:37;;;;;;;13.10;4.25;;;5.40;99.90;;;;;;2621857;46;20037;31
2023/02/22 01:00:19;;;;;;;12.77;4.50;;;5.30;99.90;;;;;;2603232;54;20869;31
2023/02/22 01:02:59;;;;;;;10.32;3.50;;;5.30;99.90;;;;;;2602589;54;20030;31
2023/02/22 01:05:38;;;;;;;12.35;4.70;;;5.20;99.90;;;;;;2621559;46;20843;31
2023/02/22 01:08:14;;;;;;;10.25;4.22;;;5.20;99.90;;;;;;2603631;54;20037;31
2023/02/22 01:10:51;;;;;;;12.82;3.90;;;5.20;99.90;;;;;;2621785;46;20038;31
2023/02/22 01:13:30;;;;;;;18.52;5.07;;;5.20;99.90;;;;;;2603359;54;20928;31
2023/02/22 01:16:11;;;;;;;15.63;6.43;;;5.20;99.90;;;;;;2603102;54;20104;31
2023/02/22 01:18:52;;;;;;;20.40;5.72;;;5.20;99.90;;;;;;2603286;54;20026;31
2023/02/22 01:24:01;;;;;;;15.82;5.55;;;5.20;99.90;;;;;;2603352;54;20026;31
2023/02/22 01:26:40;;;;;;;17.67;6.32;;;5.10;99.90;;;;;;2603268;54;20084;31
2023/02/22 01:29:18;;;;;;;;;;;5.10;99.90;;;;;;2603126;54;20034;31
2023/02/22 01:31:54;;;;;;;15.57;5.72;;;5.10;99.90;;;;;;2603141;54;19934;31
2023/02/22 01:34:35;;;;;;;14.60;5.30;;;5.10;99.90;;;;;;2603088;54;20847;31
2023/02/22 01:37:12;;;;;;;17.05;6.35;;;5.00;99.90;;;;;;2603197;54;20842;31
2023/02/22 01:39:51;;;;;;;13.80;5.55;;;5.00;99.90;;;;;;2621689;46;20819;31
2023/02/22 01:42:28;;;;;;;19.05;6.95;;;5.00;99.90;;;;;;2603348;54;20039;31
2023/02/22 01:45:33;;;;;;;22.37;7.57;;;5.00;99.90;;;;;;2603119;54;20089;31
2023/02/22 01:50:51;;;;;;;20.20;7.10;;;5.00;99.90;;;;;;2602389;54;20056;31
2023/02/22 01:53:33;;;;;;;18.48;7.35;;;4.90;99.90;;;;;;2603057;54;20254;31
2023/02/22 01:56:10;;;;;;;15.13;7.05;;;4.90;99.90;;;;;;2603011;54;19934;31
2023/02/22 01:59:01;;;;;;;22.17;9.32;;;4.90;99.90;;;;;;2720111;39;21510;31
2023/02/22 02:01:41;;;;;;;19.13;8.23;;;4.90;99.90;;;;;;2603341;54;20050;31
2023/02/22 02:04:24;;;;;;;19.83;7.82;;;4.80;99.90;;;;;;2602941;54;20120;31
2023/02/22 02:07:08;;;;;;;21.52;7.18;;;4.80;99.90;;;;;;2603519;54;20828;31
2023/02/22 02:09:49;;;;;;;26.25;8.70;;;4.70;99.90;;;;;;2604007;54;20101;31
2023/02/22 02:12:29;;;;;;;16.77;6.47;;;4.70;99.90;;;;;;2603751;54;20033;31
2023/02/22 02:15:24;;;;;;;20.00;7.53;;;4.60;99.90;;;;;;2603774;54;20787;31
2023/02/22 02:18:04;;;;;;;16.17;6.68;;;4.60;99.90;;;;;;2603779;54;19938;31
2023/02/22 02:20:46;;;;;;;15.45;7.20;;;4.50;99.90;;;;;;2622355;46;20760;31
2023/02/22 02:23:39;;;;;;;23.38;8.50;;;4.50;99.90;;;;;;2603822;54;20886;31
2023/02/22 02:26:45;;;;;;;14.63;6.60;;;4.40;99.90;;;;;;2622061;46;20032;31
2023/02/22 02:30:05;;;;;;;18.60;7.53;;;4.50;99.90;;;;;;2603646;54;20972;31
2023/02/22 02:32:55;;;;;;;12.90;6.20;;;4.40;99.90;;;;;;2603502;54;20703;31
2023/02/22 02:35:36;;;;;;;11.93;5.40;;;4.40;99.90;;;;;;2603612;54;20031;31
2023/02/22 02:38:18;;;;;;;13.00;5.97;;;4.40;99.90;;;;;;2603968;54;20022;31
2023/02/22 02:41:00;;;;;;;14.85;6.15;;;4.40;99.90;;;;;;2603869;54;20034;31
2023/02/22 02:43:41;;;;;;;15.32;6.55;;;4.40;99.90;;;;;;2622112;46;20026;31
2023/02/22 02:46:17;;;;;;;15.82;5.97;;;4.40;99.90;;;;;;2603545;54;20030;31
2023/02/22 02:48:57;;;;;;;16.30;7.10;;;4.30;99.90;;;;;;2603839;54;20890;31
2023/02/22 02:51:43;;;;;;;15.07;6.53;;;4.40;99.90;;;;;;2721014;39;20551;31
2023/02/22 02:54:20;;;;;;;13.90;5.70;;;4.40;99.90;;;;;;2603914;54;20061;31
2023/02/22 02:57:03;;;;;;;14.73;5.32;;;4.40;99.90;;;;;;2622209;46;20144;31
2023/02/22 02:59:38;;;;;;;15.02;5.57;;;4.40;99.90;;;;;;2702127;39;20628;31
2023/02/22 03:02:25;;;;;;;21.70;8.68;;;4.40;99.90;;;;;;2702386;39;21455;31
2023/02/22 03:05:09;;;;;;;12.38;5.93;;;4.40;99.90;;;;;;2603624;54;20089;31
2023/02/22 03:07:57;;;;;;;22.80;6.55;;;4.40;99.90;;;;;;2621987;46;20908;31
2023/02/22 03:10:43;;;;;;;20.17;7.22;;;4.40;99.90;;;;;;2603835;54;20030;31
2023/02/22 03:13:29;;;;;;;17.50;7.13;;;4.40;99.90;;;;;;2603632;54;20023;31
2023/02/22 03:16:08;;;;;;;14.95;7.00;;;4.40;99.90;;;;;;2603407;54;20023;31
2023/02/22 03:18:49;;;;;;;18.15;7.22;;;4.40;99.90;;;;;;2621819;46;19993;31
2023/02/22 03:24:42;;;;;;;18.58;8.23;;;4.40;99.90;;;;;;2603044;54;20102;31
2023/02/22 03:27:23;;;;;;;19.40;8.20;;;4.40;99.90;;;;;;2613756;46;20799;31
2023/02/22 03:30:02;;;;;;;15.82;7.32;;;4.40;99.90;;;;;;2602872;54;20042;31
2023/02/22 03:32:40;;;;;;;18.23;7.78;;;4.40;99.90;;;;;;2602869;54;20035;31
2023/02/22 03:35:22;;;;;;;21.77;7.40;;;4.50;99.90;;;;;;2603371;54;20022;31
2023/02/22 03:37:56;;;;;;;18.40;7.15;;;4.50;99.90;;;;;;2603384;54;20026;31
2023/02/22 03:40:36;;;;;;;15.80;7.05;;;4.30;99.90;;;;;;2603471;54;20139;31
2023/02/22 03:43:15;;;;;;;17.33;7.85;;;4.30;99.90;;;;;;2621860;46;20050;31
2023/02/22 03:45:52;;;;;;;17.27;8.35;;;4.30;99.90;;;;;;2603659;54;20053;31
2023/02/22 03:51:23;;;;;;;15.15;6.75;;;4.30;99.90;;;;;;2603628;54;20023;31
2023/02/22 03:54:07;;;;;;;17.02;7.43;;;4.30;99.90;;;;;;2603636;54;20026;31
2023/02/22 03:56:53;;;;;;;13.95;5.80;;;4.30;99.90;;;;;;2603457;54;20033;31
2023/02/22 03:59:35;;;;;;;15.02;6.93;;;4.30;99.90;;;;;;2603533;54;20117;31
2023/02/22 04:02:13;;;;;;;17.90;6.80;;;4.30;99.90;;;;;;2701933;39;21481;31
2023/02/22 04:04:51;;;;;;;9.98;6.10;;;4.30;99.90;;;;;;2603336;54;20089;31
2023/02/22 04:07:30;;;;;;;21.17;8.00;;;4.30;99.90;;;;;;2603242;54;20031;31
2023/02/22 04:10:09;;;;;;;24.65;10.77;;;4.30;99.90;;;;;;2603489;54;20874;31
2023/02/22 04:18:30;;;;;;;21.15;9.38;;;4.10;99.90;;;;;;2603381;54;20022;31
2023/02/22 04:21:07;;;;;;;22.20;9.40;;;4.10;99.90;;;;;;2603529;54;20022;31
2023/02/22 04:23:50;;;;;;;22.50;9.10;;;4.10;99.90;;;;;;2607110;46;20755;31
2023/02/22 04:26:28;;;;;;;18.77;8.38;;;4.10;99.90;;;;;;2621792;46;20034;31
2023/02/22 04:29:09;;;;;;;19.75;9.50;;;4.10;99.90;;;;;;2603307;54;20159;31
2023/02/22 04:31:48;;;;;;;21.05;8.75;;;4.10;99.90;;;;;;2603534;54;20762;31
2023/02/22 04:34:31;;;;;;;20.00;9.27;;;4.00;99.90;;;;;;2621900;46;20037;31
2023/02/22 04:37:09;;;;;;;20.65;8.65;;;4.00;99.90;;;;;;2602700;54;20789;31
2023/02/22 04:39:46;;;;;;;17.75;9.45;;;4.00;99.90;;;;;;2700957;39;21653;31
2023/02/22 04:42:32;;;;;;;20.20;8.45;;;4.00;99.90;;;;;;2603354;54;20584;31
2023/02/22 04:47:46;;;;;;;17.67;8.30;;;4.00;99.90;;;;;;2603360;54;20056;31
2023/02/22 04:50:30;;;;;;;16.20;8.02;;;3.90;99.90;;;;;;2615838;46;20776;31
2023/02/22 04:53:07;;;;;;;20.00;7.00;;;3.80;99.90;;;;;;2603431;54;20052;31
2023/02/22 04:55:45;;;;;;;21.33;9.13;;;3.80;99.90;;;;;;2621830;46;20840;31
2023/02/22 04:58:20;;;;;;;;;;;3.80;99.90;;;;;;2603373;54;20028;31
2023/02/22 05:00:58;;;;;;;14.50;7.87;;;3.70;99.90;;;;;;2603224;54;20765;31
2023/02/22 05:03:36;;;;;;;18.95;7.00;;;3.70;99.90;;;;;;2603169;54;20091;31
2023/02/22 05:06:21;;;;;;;15.73;8.27;;;3.70;99.90;;;;;;2603043;54;20033;31
2023/02/22 05:09:00;;;;;;;16.90;7.40;;;3.70;99.90;;;;;;2602417;54;20026;31
2023/02/22 05:11:39;;;;;;;22.75;11.13;;;3.70;99.90;;;;;;2621194;46;20030;31
2023/02/22 05:14:19;;;;;;;15.98;8.13;;;3.70;99.90;;;;;;2602576;54;20895;31
2023/02/22 05:16:57;;;;;;;17.27;8.43;;;3.70;99.90;;;;;;2603171;54;20038;31
2023/02/22 05:19:36;;;;;;;21.90;9.85;;;3.80;99.90;;;;;;2603156;54;20053;31
2023/02/22 05:22:16;;;;;;;20.55;9.70;;;3.70;99.90;;;;;;2603303;54;20030;31
2023/02/22 05:24:55;;;;;;;16.38;7.55;;;3.70;99.90;;;;;;2603084;54;20105;31
2023/02/22 05:27:30;;;;;;;23.77;9.80;;;3.70;99.90;;;;;;2603048;54;20033;31
2023/02/22 05:30:07;;;;;;;21.77;8.73;;;3.80;99.90;;;;;;2602655;54;20050;31
2023/02/22 05:32:46;;;;;;;20.95;10.20;;;3.80;99.90;;;;;;2603076;54;20740;31
2023/02/22 05:35:25;;;;;;;32.90;14.80;;;3.80;99.90;;;;;;2621683;46;20883;31
2023/02/22 05:38:10;;;;;;;28.98;12.93;;;3.80;99.90;;;;;;2603135;54;20891;31
2023/02/22 05:40:47;;;;;;;36.45;16.50;;;3.90;99.90;;;;;;2602854;54;20023;31
2023/02/22 05:43:25;;;;;;;37.10;17.95;;;3.80;99.90;;;;;;2602920;54;20865;31
2023/02/22 05:46:12;;;;;;;42.35;20.00;;;3.70;99.90;;;;;;2603296;54;20033;31
2023/02/22 05:51:46;;;;;;;31.85;15.05;;;3.80;99.90;;;;;;2772121;31;21516;31
2023/02/22 05:54:27;;;;;;;40.65;19.38;;;3.70;99.90;;;;;;2603337;54;20033;31
2023/02/22 05:57:03;;;;;;;32.85;16.70;;;3.80;99.90;;;;;;2603164;54;20080;31
2023/02/22 05:59:41;;;;;;;32.15;16.95;;;3.80;99.90;;;;;;2602904;54;20938;31
2023/02/22 06:02:17;;;;;;;30.90;18.63;;;3.80;99.90;;;;;;2603040;54;20097;31
2023/02/22 06:04:59;;;;;;;34.35;17.15;;;3.80;99.90;;;;;;2603160;54;20723;31
2023/02/22 06:07:39;;;;;;;31.60;17.05;;;3.80;99.90;;;;;;2603061;54;20834;31
2023/02/22 06:10:18;;;;;;;44.05;20.70;;;3.90;99.90;;;;;;2602669;54;20870;31
2023/02/22 06:12:56;;;;;;;40.15;18.50;;;3.90;99.90;;;;;;2603159;54;20097;31
2023/02/22 06:15:33;;;;;;;42.45;20.10;;;3.90;99.90;;;;;;2603137;54;20797;31
2023/02/22 06:18:10;;;;;;;30.40;16.23;;;3.90;99.90;;;;;;2602953;54;21350;31
2023/02/22 06:20:46;;;;;;;33.80;19.30;;;3.90;99.90;;;;;;2602896;54;20996;31
2023/02/22 06:23:21;;;;;;;27.67;14.63;;;4.00;99.90;;;;;;2620744;47;20892;31
2023/02/22 06:26:06;;;;;;;28.88;15.70;;;4.00;99.90;;;;;;2602941;54;20034;31
2023/02/22 06:28:40;;;;;;;30.10;16.58;;;4.00;99.90;;;;;;2603040;54;20027;31
2023/02/22 06:31:23;;;;;;;31.73;15.57;;;4.10;99.90;;;;;;2602935;54;20026;31
2023/02/22 06:34:01;;;;;;;56.40;22.77;;;4.20;99.90;;;;;;2603076;54;20049;31
2023/02/22 06:36:37;;;;;;;33.25;17.95;;;4.20;99.90;;;;;;2621312;47;20030;31
2023/02/22 06:39:15;;;;;;;38.15;17.45;;;4.20;99.90;;;;;;2602650;54;20061;31
2023/02/22 06:41:56;;;;;;;30.35;15.63;;;4.20;99.90;;;;;;2602850;54;20022;31
2023/02/22 06:44:32;;;;;;;38.57;20.90;;;4.30;99.90;;;;;;2602160;54;20896;31
2023/02/22 06:47:12;;;;;;;34.67;18.70;;;4.50;99.90;;;;;;2602247;54;20098;31
2023/02/22 06:49:50;;;;;;;47.73;23.50;;;4.40;99.90;;;;;;2602190;54;20891;31
2023/02/22 06:52:25;;;;;;;66.15;38.50;;;4.50;99.90;;;;;;2602224;54;20802;31
2023/02/22 06:55:01;;;;;;;57.72;31.45;;;4.50;99.90;;;;;;2622290;46;20030;31
2023/02/22 06:57:42;;;;;;;56.45;32.55;;;4.60;99.90;;;;;;2603859;54;20030;31
2023/02/22 07:00:24;;;;;;;57.85;31.05;;;4.60;99.90;;;;;;2603640;54;20026;31
2023/02/22 07:03:02;;;;;;;59.40;30.75;;;4.60;99.90;;;;;;2622300;46;21695;31
2023/02/22 07:05:42;;;;;;;70.70;35.08;;;4.70;99.90;;;;;;2603547;54;20855;31
2023/02/22 07:08:22;;;;;;;57.92;29.05;;;4.80;99.90;;;;;;2603770;54;20026;31
2023/02/22 07:11:10;;;;;;;52.45;22.50;;;4.80;99.90;;;;;;2603636;54;20791;31
2023/02/22 07:13:50;;;;;;;67.43;32.40;;;5.40;99.90;;;;;;2622077;46;20052;31
2023/02/22 07:16:29;;;;;;;59.42;31.27;;;5.60;99.90;;;;;;2603860;54;20023;31
2023/02/22 07:19:11;;;;;;;51.95;31.23;;;5.70;99.90;;;;;;2621572;46;20847;31
2023/02/22 07:21:59;;;;;;;47.22;25.80;;;5.60;99.90;;;;;;2603602;54;20035;31
2023/02/22 07:24:34;;;;;;;48.00;24.70;;;5.70;99.90;;;;;;2603477;54;20077;31
2023/02/22 07:27:25;;;;;;;44.58;25.80;;;5.70;99.90;;;;;;2702232;39;20498;31
2023/02/22 07:36:12;;;;;;;50.58;25.70;;;5.70;99.90;;;;;;2603492;54;20145;31
2023/02/22 07:41:29;;;;;;;51.30;25.80;;;5.80;99.90;;;;;;2603032;54;20877;31
2023/02/22 07:44:13;;;;;;;51.47;25.38;;;5.80;99.90;;;;;;2610060;46;20851;31
2023/02/22 07:47:02;;;;;;;38.80;20.90;;;5.80;99.90;;;;;;2603735;54;20799;31
2023/02/22 07:50:03;;;;;;;38.55;20.35;;;5.90;99.90;;;;;;2603334;54;20878;31
2023/02/22 07:52:46;;;;;;;45.08;24.38;;;5.90;99.90;;;;;;2603594;54;20160;31
2023/02/22 07:55:38;;;;;;;44.33;21.63;;;5.90;99.90;;;;;;2603607;54;20026;31
2023/02/22 07:58:20;;;;;;;46.40;20.05;;;6.00;99.90;;;;;;2603696;54;20088;31
2023/02/22 08:01:14;;;;;;;45.22;21.35;;;6.00;99.90;;;;;;2603466;54;20033;31
2023/02/22 08:03:58;;;;;;;35.80;15.17;;;6.10;99.90;;;;;;2603822;54;20030;31
2023/02/22 08:06:45;;;;;;;40.35;17.15;;;6.20;99.90;;;;;;2603273;54;20034;31
2023/02/22 08:12:03;;;;;;;31.80;14.65;;;6.60;99.90;;;;;;2603566;54;20908;31
2023/02/22 08:14:39;;;;;;;38.70;15.33;;;6.70;99.90;;;;;;2622009;46;20034;31
2023/02/22 08:17:33;;;;;;;34.72;15.48;;;6.70;99.90;;;;;;2603717;54;20029;31
2023/02/22 08:20:11;;;;;;;33.65;15.55;;;6.70;99.90;;;;;;2603421;54;20755;31
2023/02/22 08:23:04;;;;;;;39.28;14.90;;;6.70;99.90;;;;;;2602856;54;20838;31
2023/02/22 08:25:58;;;;;;;33.67;13.32;;;6.80;99.90;;;;;;2603451;54;20031;31
2023/02/22 08:28:35;;;;;;;39.53;11.90;;;6.90;99.90;;;;;;2621774;46;20027;31
2023/02/22 08:31:29;;;;;;;29.85;11.35;;;6.90;99.90;;;;;;2603200;54;20022;31
2023/02/22 08:34:12;;;;;;;29.48;12.63;;;7.00;99.90;;;;;;2616955;46;20029;31
2023/02/22 08:40:20;;;;;;;34.60;8.52;;;7.10;99.90;;;;;;2622034;46;20094;31
2023/02/22 08:43:12;;;;;;;28.95;7.35;;;7.20;99.90;;;;;;2621877;46;20044;31
2023/02/22 08:49:15;;;;;;;27.67;8.75;;;7.40;99.90;;;;;;2603419;54;20026;31
2023/02/22 08:54:57;;;;;;;25.30;8.75;;;7.80;99.90;;;;;;2603351;54;20027;31
2023/02/22 08:57:52;;;;;;;28.42;9.20;;;8.10;99.90;;;;;;2622059;46;20034;31
2023/02/22 09:01:01;;;;;;;24.93;8.10;;;8.50;99.90;;;;;;2603513;54;20027;31
2023/02/22 09:03:38;;;;;;;28.92;8.57;;;8.70;99.90;;;;;;2621553;46;19957;31
2023/02/22 09:06:38;;;;;;;25.35;7.80;;;8.90;99.90;;;;;;2603051;54;20825;31
2023/02/22 09:09:38;;;;;;;19.10;6.22;;;9.20;99.90;;;;;;2603058;54;20033;31
2023/02/22 09:12:15;;;;;;;20.60;5.88;;;9.30;99.90;;;;;;2603485;54;20026;31
2023/02/22 09:15:15;;;;;;;23.38;5.10;;;9.40;99.90;;;;;;2603271;54;20030;31
2023/02/22 09:24:07;;;;;;;28.90;6.90;;;9.70;99.90;;;;;;2701501;39;21536;31
2023/02/22 09:30:18;;;;;;;27.00;6.67;;;9.70;99.90;;;;;;2621658;46;20026;31
2023/02/22 09:40:43;;;;;;;19.83;4.55;;;9.70;99.90;;;;;;2701069;39;22476;31
2023/02/22 10:17:49;;;;;;;16.30;2.83;;;9.90;99.90;;;;;;2603045;54;20863;31
2023/02/22 10:39:28;;;;;;;13.18;2.15;;;9.70;99.90;;;;;;2604741;46;20351;31
2023/02/22 10:45:43;;;;;;;21.75;3.95;;;9.80;99.90;;;;;;2603050;54;20895;31
2023/02/22 10:51:22;;;;;;;18.70;4.70;;;9.90;99.90;;;;;;2603274;54;20254;31
2023/02/22 11:00:31;;;;;;;18.45;4.43;;;9.90;99.90;;;;;;2603784;54;21159;31
2023/02/22 11:03:24;;;;;;;15.70;2.70;;;10.10;99.90;;;;;;2603662;54;20033;31
2023/02/22 11:06:11;;;;;;;25.98;3.58;;;10.10;99.90;;;;;;2603806;54;20100;31
2023/02/22 11:11:58;;;;;;;18.08;3.10;;;10.20;99.90;;;;;;2603582;54;20120;31
2023/02/22 11:14:55;;;;;;;16.27;3.38;;;10.30;99.90;;;;;;2622178;46;20034;31
2023/02/22 11:17:46;;;;;;;14.75;3.40;;;10.40;99.90;;;;;;2603773;54;20026;31
2023/02/22 11:26:20;;;;;;;15.85;3.20;;;10.30;99.90;;;;;;2603512;54;20027;31
2023/02/22 11:29:27;;;;;;;15.68;3.63;;;10.30;99.90;;;;;;2622138;46;20073;31
2023/02/22 11:32:23;;;;;;;19.52;3.83;;;10.30;99.90;;;;;;2603541;54;20022;31
2023/02/22 11:42:21;;;;;;;22.13;4.53;;;10.40;99.90;;;;;;2621717;46;20023;31
2023/02/22 11:58:11;;;;;;;13.95;3.40;;;10.40;99.90;;;;;;2603559;46;19942;31
2023/02/22 12:04:19;;;;;;;18.33;3.28;;;10.30;99.90;;;;;;2622095;46;20023;31
2023/02/22 12:07:52;;;;;;;;;;;;;;;;;;;;;
2023/02/22 12:23:31;;;;;;;11.80;3.00;;;10.10;99.90;;;;;;2603360;54;20027;31
2023/02/22 12:26:40;;;;;;;13.18;3.40;;;10.20;99.90;;;;;;2603746;54;25084;31
2023/02/22 12:30:00;;;;;;;14.00;3.60;;;10.30;99.90;;;;;;2606372;46;20030;31
2023/02/22 12:36:41;;;;;;;14.80;3.53;;;10.30;99.90;;;;;;2603383;54;20026;31
2023/02/22 12:39:49;;;;;;;11.90;3.10;;;10.40;99.90;;;;;;2602725;54;20238;31
2023/02/22 12:49:35;;;;;;;12.35;2.75;;;10.40;99.90;;;;;;2622233;46;20806;31
2023/02/22 12:52:39;;;;;;;10.85;3.45;;;10.50;99.90;;;;;;2603080;54;20859;31
2023/02/22 13:11:35;;;;;;;16.00;2.78;;;10.30;99.90;;;;;;2603569;54;20030;31
2023/02/22 13:35:22;;;;;;;12.05;2.83;;;10.30;99.90;;;;;;2603180;54;20690;31
2023/02/22 13:38:29;;;;;;;11.47;2.80;;;10.30;99.90;;;;;;2605401;46;20108;31
2023/02/22 13:51:47;;;;;;;18.00;3.47;;;10.40;99.90;;;;;;2603054;54;20928;31
2023/02/22 13:58:44;;;;;;;13.75;3.35;;;10.40;99.90;;;;;;2602992;54;20022;31
2023/02/22 14:08:11;;;;;;;12.98;2.60;;;10.20;99.90;;;;;;2602950;54;20035;31
2023/02/22 14:11:24;;;;;;;13.35;4.30;;;10.20;99.90;;;;;;2621547;47;20027;31
2023/02/22 14:17:18;;;;;;;29.97;15.77;;;10.00;99.90;;;;;;2603352;54;19935;31
2023/02/22 14:23:36;;;;;;;30.33;13.23;;;9.90;99.90;;;;;;2603042;54;20033;31
2023/02/22 14:26:22;;;;;;;18.48;7.03;;;9.80;99.90;;;;;;2621422;47;20768;31
2023/02/22 14:29:07;;;;;;;15.53;4.80;;;9.80;99.90;;;;;;2621630;47;20030;31
2023/02/22 14:32:29;;;;;;;14.82;5.80;;;9.70;99.90;;;;;;2602995;54;20767;31
2023/02/22 14:35:14;;;;;;;17.85;4.78;;;9.70;99.90;;;;;;2621711;47;20049;31
2023/02/22 14:40:55;;;;;;;41.95;21.60;;;9.70;99.90;;;;;;2621140;47;20030;31
2023/02/22 14:43:38;;;;;;;12.73;4.70;;;9.60;99.90;;;;;;2603031;54;20060;31
2023/02/22 14:49:27;;;;;;;124.40;63.75;;;9.60;99.90;;;;;;2603052;54;20023;31
2023/02/22 14:52:09;;;;;;;29.85;13.07;;;9.60;99.90;;;;;;2602919;54;20928;31
2023/02/22 14:54:57;;;;;;;27.90;10.93;;;9.50;99.90;;;;;;2602420;54;20741;31
2023/02/22 14:57:44;;;;;;;19.65;6.32;;;9.50;99.90;;;;;;2621481;47;20030;31
2023/02/22 15:00:29;;;;;;;14.70;3.70;;;9.50;99.90;;;;;;2603154;54;20836;31
2023/02/22 15:03:21;;;;;;;18.30;7.00;;;9.50;99.90;;;;;;2602936;54;20027;31
2023/02/22 15:06:18;;;;;;;16.80;3.50;;;9.40;99.90;;;;;;2602904;54;20033;31
2023/02/22 15:09:08;;;;;;;11.60;3.10;;;9.40;99.90;;;;;;2603068;54;19961;31
2023/02/22 15:11:58;;;;;;;15.40;3.00;;;9.40;99.90;;;;;;2621493;47;19984;31
2023/02/22 15:14:36;;;;;;;12.93;3.37;;;9.30;99.90;;;;;;2621684;47;20104;31
2023/02/22 15:20:40;;;;;;;16.55;3.60;;;9.30;99.90;;;;;;2622133;46;20034;31
2023/02/22 15:29:58;;;;;;;18.35;4.30;;;9.30;99.90;;;;;;2602678;54;20890;31
2023/02/22 15:38:41;;;;;;;11.35;3.50;;;9.30;99.90;;;;;;2603616;54;20022;31
2023/02/22 15:51:17;;;;;;;9.43;3.53;;;9.10;99.90;;;;;;2621619;46;19931;31
2023/02/22 17:48:31;;;;;;;19.52;7.85;;;7.90;99.90;;;;;;2602664;54;20041;31
2023/02/22 18:03:20;;;;;;;29.92;12.02;;;7.80;99.90;;;;;;2603323;54;20033;31
2023/02/22 18:06:16;;;;;;;35.53;15.45;;;7.90;99.90;;;;;;2621829;46;20056;31
2023/02/22 18:14:54;;;;;;;29.20;12.73;;;7.80;99.90;;;;;;2603119;54;20142;31
2023/02/22 18:20:36;;;;;;;29.10;10.88;;;7.70;99.90;;;;;;2603255;54;20027;31
2023/02/22 18:23:26;;;;;;;27.67;11.57;;;7.50;99.90;;;;;;2603348;54;20026;31
2023/02/22 18:32:16;;;;;;;26.48;11.13;;;7.20;99.90;;;;;;2621556;47;20938;31
2023/02/22 18:34:56;;;;;;;26.08;11.38;;;7.20;99.90;;;;;;2603140;54;20759;31
2023/02/22 18:37:34;;;;;;;29.05;13.25;;;7.00;99.90;;;;;;2602915;54;20030;31
2023/02/22 18:40:17;;;;;;;28.88;13.95;;;7.00;99.90;;;;;;2603166;54;20946;31
2023/02/22 18:43:00;;;;;;;37.33;13.17;;;7.00;99.90;;;;;;2603049;54;20089;31
2023/02/22 18:45:40;;;;;;;27.52;13.15;;;7.00;99.90;;;;;;2602114;54;20306;31
2023/02/22 18:48:19;;;;;;;29.58;11.90;;;6.90;99.90;;;;;;2621690;47;20850;31
2023/02/22 18:50:58;;;;;;;27.23;11.73;;;6.90;99.90;;;;;;2603667;54;20085;31
2023/02/22 18:53:35;;;;;;;31.25;14.05;;;6.80;99.90;;;;;;2603668;54;20031;31
2023/02/22 18:56:28;;;;;;;53.17;25.90;;;6.70;99.90;;;;;;2603775;54;20042;31
2023/02/22 18:59:14;;;;;;;67.78;28.40;;;6.60;99.90;;;;;;2603868;54;20148;31
2023/02/22 19:01:59;;;;;;;29.58;13.50;;;6.60;99.90;;;;;;2603889;54;19934;31
2023/02/22 19:04:38;;;;;;;29.38;14.27;;;6.50;99.90;;;;;;2603435;54;20046;31
2023/02/22 19:07:19;;;;;;;30.83;14.77;;;6.40;99.90;;;;;;2621495;46;20053;31
2023/02/22 19:09:56;;;;;;;34.37;12.67;;;6.40;99.90;;;;;;2603828;54;20026;31
2023/02/22 19:15:33;;;;;;;29.77;13.55;;;6.20;99.90;;;;;;2602766;54;20891;31
2023/02/22 19:18:12;;;;;;;29.83;12.15;;;6.10;99.90;;;;;;2603632;54;20101;31
2023/02/22 19:20:55;;;;;;;34.08;15.68;;;6.00;99.90;;;;;;2603743;54;20026;31
2023/02/22 19:23:44;;;;;;;34.58;14.82;;;5.90;99.90;;;;;;2603690;54;20839;31
2023/02/22 19:26:23;;;;;;;45.80;23.80;;;5.80;99.90;;;;;;2603704;54;20089;31
2023/02/22 19:29:07;;;;;;;28.30;13.55;;;5.80;99.90;;;;;;2603540;54;20033;31
2023/02/22 19:31:52;;;;;;;25.60;13.10;;;5.70;99.90;;;;;;2603559;54;20109;31
2023/02/22 19:34:32;;;;;;;25.25;13.73;;;5.60;99.90;;;;;;2603618;54;20053;31
2023/02/22 19:40:07;;;;;;;33.05;17.75;;;5.60;99.90;;;;;;2603596;54;20046;31
2023/02/22 19:42:47;;;;;;;34.80;18.15;;;5.50;99.90;;;;;;2603722;54;20038;31
2023/02/22 19:45:24;;;;;;;42.88;20.38;;;5.40;99.90;;;;;;2603649;54;20038;31
2023/02/22 19:48:07;;;;;;;30.80;15.10;;;5.40;99.90;;;;;;2622153;46;20038;31
2023/02/22 19:50:56;;;;;;;34.88;17.08;;;5.30;99.90;;;;;;2603659;54;20086;31
2023/02/22 19:53:37;;;;;;;36.67;17.70;;;5.30;99.90;;;;;;2603620;54;20927;31
2023/02/22 19:56:18;;;;;;;31.85;13.43;;;5.20;99.90;;;;;;2603736;54;20026;31
2023/02/22 20:01:46;;;;;;;25.20;11.05;;;5.00;99.90;;;;;;2603308;54;20786;31
2023/02/22 20:04:30;;;;;;;26.83;12.20;;;5.00;99.90;;;;;;2603244;54;20907;31
2023/02/22 20:07:10;;;;;;;21.00;13.23;;;4.90;99.90;;;;;;2603256;54;20054;31
2023/02/22 20:09:52;;;;;;;28.25;12.65;;;4.90;99.90;;;;;;2603435;54;20085;31
2023/02/22 20:12:31;;;;;;;25.98;12.13;;;4.80;99.90;;;;;;2621742;46;20064;31
2023/02/22 20:15:11;;;;;;;23.50;11.15;;;4.80;99.90;;;;;;2603246;54;20023;31
2023/02/22 20:17:54;;;;;;;26.95;13.07;;;4.70;99.90;;;;;;2603540;54;20128;31
2023/02/22 20:20:36;;;;;;;26.95;12.25;;;4.70;99.90;;;;;;2622037;46;20033;31
2023/02/22 20:23:29;;;;;;;27.90;12.15;;;4.60;99.90;;;;;;2603382;54;20043;31
2023/02/22 20:26:12;;;;;;;31.98;13.07;;;4.60;99.90;;;;;;2602734;54;20022;31
2023/02/22 20:28:52;;;;;;;26.40;12.70;;;4.60;99.90;;;;;;2605434;46;20056;31
2023/02/22 20:31:52;;;;;;;26.95;14.07;;;4.50;99.90;;;;;;2603317;54;20026;31
2023/02/22 20:34:34;;;;;;;30.55;13.10;;;4.50;99.90;;;;;;2603195;54;20030;31
2023/02/22 20:37:11;;;;;;;26.75;12.60;;;4.40;99.90;;;;;;2603370;54;21322;31
2023/02/22 20:40:06;;;;;;;27.77;13.52;;;4.40;99.90;;;;;;2603279;54;20026;31
2023/02/22 20:48:31;;;;;;;29.25;14.23;;;4.30;99.90;;;;;;2606328;46;20089;31
2023/02/22 20:51:19;;;;;;;27.35;13.30;;;4.30;99.90;;;;;;2603249;54;20786;31
2023/02/22 20:54:01;;;;;;;28.88;14.18;;;4.20;99.90;;;;;;2603228;54;20934;31
2023/02/22 20:56:39;;;;;;;29.70;15.25;;;4.20;99.90;;;;;;2621683;46;20031;31
2023/02/22 20:59:20;;;;;;;34.23;16.37;;;4.20;99.90;;;;;;2603142;54;20033;31
2023/02/22 21:01:59;;;;;;;32.35;13.65;;;4.20;99.90;;;;;;2621809;46;20554;31
2023/02/22 21:07:57;;;;;;;28.98;14.50;;;4.10;99.90;;;;;;2602696;54;20915;31
2023/02/22 21:10:40;;;;;;;34.23;16.67;;;4.10;99.90;;;;;;2603217;54;20857;31
2023/02/22 21:13:16;;;;;;;33.20;14.75;;;4.00;99.90;;;;;;2602756;54;20843;31
2023/02/22 21:15:55;;;;;;;36.73;16.10;;;4.00;99.90;;;;;;2603009;54;20884;31
2023/02/22 21:18:32;;;;;;;32.33;14.60;;;4.00;99.90;;;;;;2602504;54;20056;31
2023/02/22 21:21:11;;;;;;;30.52;15.00;;;3.90;99.90;;;;;;2621536;46;20030;31
2023/02/22 21:23:56;;;;;;;34.20;15.43;;;3.90;99.90;;;;;;2603284;54;20750;31
2023/02/22 21:26:36;;;;;;;27.77;14.93;;;3.80;99.90;;;;;;2603103;54;20038;31
2023/02/22 21:29:11;;;;;;;31.23;15.37;;;3.80;99.90;;;;;;2602468;54;22578;31
2023/02/22 21:31:47;;;;;;;;;;;3.80;99.90;;;;;;2603115;54;21403;31
2023/02/22 21:34:25;;;;;;;30.07;14.13;;;3.80;99.90;;;;;;2603445;54;20005;31
2023/02/22 21:37:06;;;;;;;35.00;17.05;;;3.70;99.90;;;;;;2603399;54;20038;31